sensor_id;sensor_type;location;lat;lon;timestamp;temperature;humidity
16040;DHT22;8124;48.634;8.120;2024-03-17T00:02:45;11.70;99.90
16040;DHT22;8124;48.634;8.120;2024-03-17T00:07:48;11.70;99.90
16040;DHT22;8124;48.634;8.120;2024-03-17T00:12:51;11.50;99.90
16040;DHT22;8124;48.634;8.120;2024-03-17T00:17:54;11.40;99.90
16040;DHT22;8124;48.634;8.120;2024-03-17T00:22:56;11.40;99.90
16040;DHT22;8124;48.634;8.120;2024-03-17T00:27:58;11.50;99.90
16040;DHT22;8124;48.634;8.120;2024-03-17T00:33:01;11.60;99.90
16040;DHT22;8124;48.634;8.120;2024-03-17T00:38:04;11.60;99.90
16040;DHT22;8124;48.634;8.120;2024-03-17T00:43:10;11.50;99.90
16040;DHT22;8124;48.634;8.120;2024-03-17T00:48:14;11.40;99.90
16040;DHT22;8124;48.634;8.120;2024-03-17T00:53:16;11.10;99.90
16040;DHT22;8124;48.634;8.120;2024-03-17T00:58:19;11.20;99.90
16040;DHT22;8124;48.634;8.120;2024-03-17T01:03:23;11.20;99.90
16040;DHT22;8124;48.634;8.120;2024-03-17T01:08:25;11.30;99.90
16040;DHT22;8124;48.634;8.120;2024-03-17T01:13:27;11.20;99.90
16040;DHT22;8124;48.634;8.120;2024-03-17T01:18:30;11.20;99.90
16040;DHT22;8124;48.634;8.120;2024-03-17T01:23:33;11.20;99.90
16040;DHT22;8124;48.634;8.120;2024-03-17T01:28:35;11.10;99.90
16040;DHT22;8124;48.634;8.120;2024-03-17T01:33:38;11.20;99.90
16040;DHT22;8124;48.634;8.120;2024-03-17T01:38:41;11.10;99.90
16040;DHT22;8124;48.634;8.120;2024-03-17T01:43:44;11.10;99.90
16040;DHT22;8124;48.634;8.120;2024-03-17T01:48:48;11.00;99.90
16040;DHT22;8124;48.634;8.120;2024-03-17T01:53:50;11.00;99.90
16040;DHT22;8124;48.634;8.120;2024-03-17T01:58:52;10.70;99.90
16040;DHT22;8124;48.634;8.120;2024-03-17T02:03:56;10.80;99.90
16040;DHT22;8124;48.634;8.120;2024-03-17T02:08:58;10.40;99.90
16040;DHT22;8124;48.634;8.120;2024-03-17T02:14:01;10.40;99.90
16040;DHT22;8124;48.634;8.120;2024-03-17T02:19:04;10.70;99.90
16040;DHT22;8124;48.634;8.120;2024-03-17T02:24:09;10.70;99.90
16040;DHT22;8124;48.634;8.120;2024-03-17T02:29:11;10.80;99.90
16040;DHT22;8124;48.634;8.120;2024-03-17T02:34:13;10.90;99.90
16040;DHT22;8124;48.634;8.120;2024-03-17T02:39:16;10.90;99.90
16040;DHT22;8124;48.634;8.120;2024-03-17T02:44:36;11.00;99.90
16040;DHT22;8124;48.634;8.120;2024-03-17T02:49:38;11.00;99.90
16040;DHT22;8124;48.634;8.120;2024-03-17T02:54:41;10.90;99.90
16040;DHT22;8124;48.634;8.120;2024-03-17T02:59:44;10.90;99.90
16040;DHT22;8124;48.634;8.120;2024-03-17T03:04:47;10.70;99.90
16040;DHT22;8124;48.634;8.120;2024-03-17T03:09:50;10.20;99.90
16040;DHT22;8124;48.634;8.120;2024-03-17T03:14:53;10.40;99.90
16040;DHT22;8124;48.634;8.120;2024-03-17T03:19:55;10.40;99.90
16040;DHT22;8124;48.634;8.120;2024-03-17T03:24:59;10.50;99.90
16040;DHT22;8124;48.634;8.120;2024-03-17T03:30:01;10.40;99.90
16040;DHT22;8124;48.634;8.120;2024-03-17T03:35:04;10.40;99.90
16040;DHT22;8124;48.634;8.120;2024-03-17T03:40:09;10.40;99.90
16040;DHT22;8124;48.634;8.120;2024-03-17T03:45:17;10.50;99.90
16040;DHT22;8124;48.634;8.120;2024-03-17T03:50:21;10.40;99.90
16040;DHT22;8124;48.634;8.120;2024-03-17T03:55:25;10.40;99.90
16040;DHT22;8124;48.634;8.120;2024-03-17T04:00:27;10.40;99.90
16040;DHT22;8124;48.634;8.120;2024-03-17T04:05:32;10.30;99.90
16040;DHT22;8124;48.634;8.120;2024-03-17T04:10:36;10.30;99.90
16040;DHT22;8124;48.634;8.120;2024-03-17T04:15:38;10.10;99.90
16040;DHT22;8124;48.634;8.120;2024-03-17T04:20:41;10.10;99.90
16040;DHT22;8124;48.634;8.120;2024-03-17T04:25:44;10.10;99.90
16040;DHT22;8124;48.634;8.120;2024-03-17T04:30:46;10.10;99.90
16040;DHT22;8124;48.634;8.120;2024-03-17T04:35:49;10.10;99.90
16040;DHT22;8124;48.634;8.120;2024-03-17T04:40:52;10.10;99.90
16040;DHT22;8124;48.634;8.120;2024-03-17T04:46:01;10.10;99.90
16040;DHT22;8124;48.634;8.120;2024-03-17T04:51:05;10.00;99.90
16040;DHT22;8124;48.634;8.120;2024-03-17T04:56:08;10.00;99.90
16040;DHT22;8124;48.634;8.120;2024-03-17T05:01:10;10.00;99.90
16040;DHT22;8124;48.634;8.120;2024-03-17T05:06:13;9.90;99.90
16040;DHT22;8124;48.634;8.120;2024-03-17T05:11:17;9.80;99.90
16040;DHT22;8124;48.634;8.120;2024-03-17T05:16:20;9.80;99.90
16040;DHT22;8124;48.634;8.120;2024-03-17T05:21:24;9.50;99.90
16040;DHT22;8124;48.634;8.120;2024-03-17T05:26:32;9.20;99.90
16040;DHT22;8124;48.634;8.120;2024-03-17T05:31:34;9.50;99.90
16040;DHT22;8124;48.634;8.120;2024-03-17T05:36:36;9.40;99.90
16040;DHT22;8124;48.634;8.120;2024-03-17T05:41:40;9.50;99.90
16040;DHT22;8124;48.634;8.120;2024-03-17T05:46:44;9.50;99.90
16040;DHT22;8124;48.634;8.120;2024-03-17T05:51:46;9.40;99.90
16040;DHT22;8124;48.634;8.120;2024-03-17T05:56:50;9.20;99.90
16040;DHT22;8124;48.634;8.120;2024-03-17T06:01:52;9.00;99.90
16040;DHT22;8124;48.634;8.120;2024-03-17T06:06:54;9.00;99.90
16040;DHT22;8124;48.634;8.120;2024-03-17T06:11:58;9.00;99.90
16040;DHT22;8124;48.634;8.120;2024-03-17T06:17:01;9.20;99.90
16040;DHT22;8124;48.634;8.120;2024-03-17T06:22:03;9.20;99.90
16040;DHT22;8124;48.634;8.120;2024-03-17T06:27:07;9.00;99.90
16040;DHT22;8124;48.634;8.120;2024-03-17T06:32:10;9.00;99.90
16040;DHT22;8124;48.634;8.120;2024-03-17T06:37:12;9.20;99.90
16040;DHT22;8124;48.634;8.120;2024-03-17T06:42:15;9.40;99.90
16040;DHT22;8124;48.634;8.120;2024-03-17T06:47:17;9.40;99.90
16040;DHT22;8124;48.634;8.120;2024-03-17T06:52:19;9.50;99.90
16040;DHT22;8124;48.634;8.120;2024-03-17T06:57:22;9.60;99.90
16040;DHT22;8124;48.634;8.120;2024-03-17T07:02:24;9.60;99.90
16040;DHT22;8124;48.634;8.120;2024-03-17T07:07:27;9.70;99.90
16040;DHT22;8124;48.634;8.120;2024-03-17T07:12:30;9.80;99.90
16040;DHT22;8124;48.634;8.120;2024-03-17T07:17:32;9.80;99.90
16040;DHT22;8124;48.634;8.120;2024-03-17T07:22:35;9.90;99.90
16040;DHT22;8124;48.634;8.120;2024-03-17T07:27:38;9.90;99.90
16040;DHT22;8124;48.634;8.120;2024-03-17T07:32:40;9.80;99.90
16040;DHT22;8124;48.634;8.120;2024-03-17T07:37:42;9.80;99.90
16040;DHT22;8124;48.634;8.120;2024-03-17T07:42:46;9.90;99.90
16040;DHT22;8124;48.634;8.120;2024-03-17T07:47:50;10.00;99.90
16040;DHT22;8124;48.634;8.120;2024-03-17T07:52:52;10.00;99.90
16040;DHT22;8124;48.634;8.120;2024-03-17T07:57:56;10.10;99.90
16040;DHT22;8124;48.634;8.120;2024-03-17T08:02:58;10.30;99.90
16040;DHT22;8124;48.634;8.120;2024-03-17T08:08:00;10.60;99.90
16040;DHT22;8124;48.634;8.120;2024-03-17T08:13:04;10.70;99.90
16040;DHT22;8124;48.634;8.120;2024-03-17T08:18:06;10.70;99.90
16040;DHT22;8124;48.634;8.120;2024-03-17T08:23:09;10.70;99.90
16040;DHT22;8124;48.634;8.120;2024-03-17T08:28:13;10.80;99.90
16040;DHT22;8124;48.634;8.120;2024-03-17T08:33:15;10.80;99.90
16040;DHT22;8124;48.634;8.120;2024-03-17T08:38:17;10.80;99.90
16040;DHT22;8124;48.634;8.120;2024-03-17T08:43:22;11.10;99.90
16040;DHT22;8124;48.634;8.120;2024-03-17T08:48:25;11.20;99.90
16040;DHT22;8124;48.634;8.120;2024-03-17T08:53:28;11.20;99.90
16040;DHT22;8124;48.634;8.120;2024-03-17T08:58:31;11.30;99.90
16040;DHT22;8124;48.634;8.120;2024-03-17T09:03:34;11.40;99.90
16040;DHT22;8124;48.634;8.120;2024-03-17T09:08:36;11.40;99.90
16040;DHT22;8124;48.634;8.120;2024-03-17T09:13:39;11.60;99.90
16040;DHT22;8124;48.634;8.120;2024-03-17T09:18:41;11.60;99.90
16040;DHT22;8124;48.634;8.120;2024-03-17T09:23:43;11.80;99.90
16040;DHT22;8124;48.634;8.120;2024-03-17T09:28:47;12.00;99.90
16040;DHT22;8124;48.634;8.120;2024-03-17T09:33:49;11.90;99.90
16040;DHT22;8124;48.634;8.120;2024-03-17T09:38:51;11.80;99.90
16040;DHT22;8124;48.634;8.120;2024-03-17T09:43:56;12.00;99.90
16040;DHT22;8124;48.634;8.120;2024-03-17T09:48:58;12.10;99.90
16040;DHT22;8124;48.634;8.120;2024-03-17T09:54:00;12.30;99.90
16040;DHT22;8124;48.634;8.120;2024-03-17T09:59:03;12.10;99.90
16040;DHT22;8124;48.634;8.120;2024-03-17T10:04:05;12.30;99.90
16040;DHT22;8124;48.634;8.120;2024-03-17T10:09:15;12.30;99.90
16040;DHT22;8124;48.634;8.120;2024-03-17T10:14:39;12.60;99.90
16040;DHT22;8124;48.634;8.120;2024-03-17T10:38:13;12.80;99.90
16040;DHT22;8124;48.634;8.120;2024-03-17T10:50:30;12.90;99.90
16040;DHT22;8124;48.634;8.120;2024-03-17T11:02:25;13.00;99.90
16040;DHT22;8124;48.634;8.120;2024-03-17T11:07:29;13.10;99.90
16040;DHT22;8124;48.634;8.120;2024-03-17T11:12:42;13.30;99.90
16040;DHT22;8124;48.634;8.120;2024-03-17T11:17:46;13.30;99.90
16040;DHT22;8124;48.634;8.120;2024-03-17T11:22:52;13.50;99.90
16040;DHT22;8124;48.634;8.120;2024-03-17T11:27:54;13.70;99.90
16040;DHT22;8124;48.634;8.120;2024-03-17T11:32:59;13.90;99.90
16040;DHT22;8124;48.634;8.120;2024-03-17T11:51:54;13.80;99.90
16040;DHT22;8124;48.634;8.120;2024-03-17T11:57:28;13.80;99.90
16040;DHT22;8124;48.634;8.120;2024-03-17T12:22:55;14.10;99.90
16040;DHT22;8124;48.634;8.120;2024-03-17T12:34:31;14.40;99.90
16040;DHT22;8124;48.634;8.120;2024-03-17T12:39:36;14.50;99.90
16040;DHT22;8124;48.634;8.120;2024-03-17T12:44:48;14.50;99.90
16040;DHT22;8124;48.634;8.120;2024-03-17T12:49:54;14.60;99.90
16040;DHT22;8124;48.634;8.120;2024-03-17T12:55:05;14.80;99.90
16040;DHT22;8124;48.634;8.120;2024-03-17T13:00:26;14.80;99.90
16040;DHT22;8124;48.634;8.120;2024-03-17T13:05:35;14.80;99.90
16040;DHT22;8124;48.634;8.120;2024-03-17T13:10:39;14.80;99.90
16040;DHT22;8124;48.634;8.120;2024-03-17T13:15:44;14.70;99.90
16040;DHT22;8124;48.634;8.120;2024-03-17T13:20:47;15.20;99.90
16040;DHT22;8124;48.634;8.120;2024-03-17T13:26:02;15.40;99.90
16040;DHT22;8124;48.634;8.120;2024-03-17T13:52:07;15.70;99.90
16040;DHT22;8124;48.634;8.120;2024-03-17T13:57:09;15.90;99.90
16040;DHT22;8124;48.634;8.120;2024-03-17T14:02:13;15.80;99.90
16040;DHT22;8124;48.634;8.120;2024-03-17T14:07:16;15.90;99.90
16040;DHT22;8124;48.634;8.120;2024-03-17T14:12:18;16.00;99.90
16040;DHT22;8124;48.634;8.120;2024-03-17T14:17:20;16.00;99.90
16040;DHT22;8124;48.634;8.120;2024-03-17T14:22:24;16.00;99.90
16040;DHT22;8124;48.634;8.120;2024-03-17T14:27:26;16.10;99.90
16040;DHT22;8124;48.634;8.120;2024-03-17T14:32:28;16.00;99.90
16040;DHT22;8124;48.634;8.120;2024-03-17T14:37:32;16.10;99.90
16040;DHT22;8124;48.634;8.120;2024-03-17T14:42:34;16.10;99.90
16040;DHT22;8124;48.634;8.120;2024-03-17T14:47:36;16.10;99.90
16040;DHT22;8124;48.634;8.120;2024-03-17T14:52:39;16.00;99.90
16040;DHT22;8124;48.634;8.120;2024-03-17T14:57:42;16.00;99.90
16040;DHT22;8124;48.634;8.120;2024-03-17T15:02:44;16.10;99.90
16040;DHT22;8124;48.634;8.120;2024-03-17T15:07:49;16.20;99.90
16040;DHT22;8124;48.634;8.120;2024-03-17T15:12:51;16.20;99.90
16040;DHT22;8124;48.634;8.120;2024-03-17T15:17:53;16.10;99.90
16040;DHT22;8124;48.634;8.120;2024-03-17T15:22:56;16.00;99.90
16040;DHT22;8124;48.634;8.120;2024-03-17T15:27:58;16.00;99.90
16040;DHT22;8124;48.634;8.120;2024-03-17T15:33:02;16.00;99.90
16040;DHT22;8124;48.634;8.120;2024-03-17T15:38:06;16.10;99.90
16040;DHT22;8124;48.634;8.120;2024-03-17T15:43:08;16.10;99.90
16040;DHT22;8124;48.634;8.120;2024-03-17T15:48:10;16.10;99.90
16040;DHT22;8124;48.634;8.120;2024-03-17T15:53:13;16.10;99.90
16040;DHT22;8124;48.634;8.120;2024-03-17T15:58:15;16.10;99.90
16040;DHT22;8124;48.634;8.120;2024-03-17T16:03:19;16.00;99.90
16040;DHT22;8124;48.634;8.120;2024-03-17T16:08:25;16.20;99.90
16040;DHT22;8124;48.634;8.120;2024-03-17T16:13:27;16.10;99.90
16040;DHT22;8124;48.634;8.120;2024-03-17T16:18:29;16.10;99.90
16040;DHT22;8124;48.634;8.120;2024-03-17T16:23:38;16.10;99.90
16040;DHT22;8124;48.634;8.120;2024-03-17T16:28:41;16.10;99.90
16040;DHT22;8124;48.634;8.120;2024-03-17T16:33:45;16.20;99.90
16040;DHT22;8124;48.634;8.120;2024-03-17T16:38:50;16.10;99.90
16040;DHT22;8124;48.634;8.120;2024-03-17T16:43:56;16.10;99.90
16040;DHT22;8124;48.634;8.120;2024-03-17T16:48:59;16.20;99.90
16040;DHT22;8124;48.634;8.120;2024-03-17T16:54:03;16.20;99.90
16040;DHT22;8124;48.634;8.120;2024-03-17T16:59:06;16.20;99.90
16040;DHT22;8124;48.634;8.120;2024-03-17T17:04:08;16.20;99.90
16040;DHT22;8124;48.634;8.120;2024-03-17T17:09:11;16.20;99.90
16040;DHT22;8124;48.634;8.120;2024-03-17T17:14:13;16.20;99.90
16040;DHT22;8124;48.634;8.120;2024-03-17T17:19:16;16.20;99.90
16040;DHT22;8124;48.634;8.120;2024-03-17T17:24:19;16.10;99.90
16040;DHT22;8124;48.634;8.120;2024-03-17T17:29:25;16.10;99.90
16040;DHT22;8124;48.634;8.120;2024-03-17T17:34:27;16.00;99.90
16040;DHT22;8124;48.634;8.120;2024-03-17T17:39:31;16.00;99.90
16040;DHT22;8124;48.634;8.120;2024-03-17T17:44:34;15.80;99.90
16040;DHT22;8124;48.634;8.120;2024-03-17T17:49:36;15.70;99.90
16040;DHT22;8124;48.634;8.120;2024-03-17T17:54:39;15.80;99.90
16040;DHT22;8124;48.634;8.120;2024-03-17T17:59:41;15.70;99.90
16040;DHT22;8124;48.634;8.120;2024-03-17T18:04:44;15.70;99.90
16040;DHT22;8124;48.634;8.120;2024-03-17T18:09:48;15.70;99.90
16040;DHT22;8124;48.634;8.120;2024-03-17T18:14:49;15.60;99.90
16040;DHT22;8124;48.634;8.120;2024-03-17T18:19:51;15.50;99.90
16040;DHT22;8124;48.634;8.120;2024-03-17T18:24:55;15.50;99.90
16040;DHT22;8124;48.634;8.120;2024-03-17T18:30:00;15.40;99.90
16040;DHT22;8124;48.634;8.120;2024-03-17T18:35:42;15.40;99.90
16040;DHT22;8124;48.634;8.120;2024-03-17T18:40:57;15.30;99.90
16040;DHT22;8124;48.634;8.120;2024-03-17T18:45:59;15.30;99.90
16040;DHT22;8124;48.634;8.120;2024-03-17T18:51:02;14.80;99.90
16040;DHT22;8124;48.634;8.120;2024-03-17T18:56:06;14.60;99.90
16040;DHT22;8124;48.634;8.120;2024-03-17T19:01:08;14.80;99.90
16040;DHT22;8124;48.634;8.120;2024-03-17T19:06:11;15.00;99.90
16040;DHT22;8124;48.634;8.120;2024-03-17T19:11:14;15.00;99.90
16040;DHT22;8124;48.634;8.120;2024-03-17T19:16:16;15.10;99.90
16040;DHT22;8124;48.634;8.120;2024-03-17T19:21:19;15.10;99.90
16040;DHT22;8124;48.634;8.120;2024-03-17T19:26:22;15.10;99.90
16040;DHT22;8124;48.634;8.120;2024-03-17T19:31:24;15.10;99.90
16040;DHT22;8124;48.634;8.120;2024-03-17T19:36:26;15.00;99.90
16040;DHT22;8124;48.634;8.120;2024-03-17T19:41:30;14.90;99.90
16040;DHT22;8124;48.634;8.120;2024-03-17T19:46:33;14.80;99.90
16040;DHT22;8124;48.634;8.120;2024-03-17T19:51:35;14.90;99.90
16040;DHT22;8124;48.634;8.120;2024-03-17T19:56:39;14.90;99.90
16040;DHT22;8124;48.634;8.120;2024-03-17T20:01:43;14.90;99.90
16040;DHT22;8124;48.634;8.120;2024-03-17T20:06:45;14.80;99.90
16040;DHT22;8124;48.634;8.120;2024-03-17T20:11:49;14.80;99.90
16040;DHT22;8124;48.634;8.120;2024-03-17T20:16:51;14.70;99.90
16040;DHT22;8124;48.634;8.120;2024-03-17T20:21:54;14.70;99.90
16040;DHT22;8124;48.634;8.120;2024-03-17T20:26:57;14.80;99.90
16040;DHT22;8124;48.634;8.120;2024-03-17T20:32:01;14.70;99.90
16040;DHT22;8124;48.634;8.120;2024-03-17T20:37:03;14.20;99.90
16040;DHT22;8124;48.634;8.120;2024-03-17T20:42:07;14.20;99.90
16040;DHT22;8124;48.634;8.120;2024-03-17T20:47:09;14.20;99.90
16040;DHT22;8124;48.634;8.120;2024-03-17T20:52:13;14.30;99.90
16040;DHT22;8124;48.634;8.120;2024-03-17T20:57:16;14.30;99.90
16040;DHT22;8124;48.634;8.120;2024-03-17T21:02:18;14.00;99.90
16040;DHT22;8124;48.634;8.120;2024-03-17T21:07:20;13.80;99.90
16040;DHT22;8124;48.634;8.120;2024-03-17T21:12:23;13.80;99.90
16040;DHT22;8124;48.634;8.120;2024-03-17T21:17:25;14.00;99.90
16040;DHT22;8124;48.634;8.120;2024-03-17T21:22:27;14.00;99.90
16040;DHT22;8124;48.634;8.120;2024-03-17T21:27:31;14.00;99.90
16040;DHT22;8124;48.634;8.120;2024-03-17T21:32:33;14.10;99.90
16040;DHT22;8124;48.634;8.120;2024-03-17T21:37:35;13.90;99.90
16040;DHT22;8124;48.634;8.120;2024-03-17T21:42:38;13.80;99.90
16040;DHT22;8124;48.634;8.120;2024-03-17T21:47:42;13.70;99.90
16040;DHT22;8124;48.634;8.120;2024-03-17T21:52:44;13.70;99.90
16040;DHT22;8124;48.634;8.120;2024-03-17T21:57:47;13.90;99.90
16040;DHT22;8124;48.634;8.120;2024-03-17T22:02:49;14.00;99.90
16040;DHT22;8124;48.634;8.120;2024-03-17T22:07:51;14.00;99.90
16040;DHT22;8124;48.634;8.120;2024-03-17T22:12:54;13.90;99.90
16040;DHT22;8124;48.634;8.120;2024-03-17T22:17:56;13.80;99.90
16040;DHT22;8124;48.634;8.120;2024-03-17T22:23:00;13.90;99.90
16040;DHT22;8124;48.634;8.120;2024-03-17T22:28:04;13.90;99.90
16040;DHT22;8124;48.634;8.120;2024-03-17T22:33:06;13.70;99.90
16040;DHT22;8124;48.634;8.120;2024-03-17T22:38:08;13.70;99.90
16040;DHT22;8124;48.634;8.120;2024-03-17T22:43:11;13.50;99.90
16040;DHT22;8124;48.634;8.120;2024-03-17T22:48:13;13.70;99.90
16040;DHT22;8124;48.634;8.120;2024-03-17T22:53:15;13.70;99.90
16040;DHT22;8124;48.634;8.120;2024-03-17T22:58:21;13.60;99.90
16040;DHT22;8124;48.634;8.120;2024-03-17T23:03:24;13.40;99.90
16040;DHT22;8124;48.634;8.120;2024-03-17T23:08:27;13.30;99.90
16040;DHT22;8124;48.634;8.120;2024-03-17T23:13:33;13.60;99.90
16040;DHT22;8124;48.634;8.120;2024-03-17T23:18:35;13.70;99.90
16040;DHT22;8124;48.634;8.120;2024-03-17T23:23:38;13.80;99.90
16040;DHT22;8124;48.634;8.120;2024-03-17T23:28:41;13.80;99.90
16040;DHT22;8124;48.634;8.120;2024-03-17T23:33:43;13.80;99.90
16040;DHT22;8124;48.634;8.120;2024-03-17T23:38:45;13.80;99.90
16040;DHT22;8124;48.634;8.120;2024-03-17T23:43:52;13.80;99.90
16040;DHT22;8124;48.634;8.120;2024-03-17T23:48:54;13.80;99.90
16040;DHT22;8124;48.634;8.120;2024-03-17T23:53:56;13.80;99.90
16040;DHT22;8124;48.634;8.120;2024-03-17T23:58:59;13.90;99.90
